createdAt,value
2016-08-04T00:00:49.107Z,1008.34
2016-08-04T00:01:49.130Z,1008.39
2016-08-04T00:02:49.155Z,1008.4
2016-08-04T00:03:49.179Z,1008.34
2016-08-04T00:04:49.205Z,1008.32
2016-08-04T00:05:49.231Z,1008.37
2016-08-04T00:06:49.255Z,1008.34
2016-08-04T00:07:49.279Z,1008.4
2016-08-04T00:08:49.304Z,1008.36
2016-08-04T00:09:49.330Z,1008.44
2016-08-04T00:10:49.354Z,1008.42
2016-08-04T00:11:49.379Z,1008.4
2016-08-04T00:12:49.405Z,1008.42
2016-08-04T00:13:49.428Z,1008.43
2016-08-04T00:14:49.453Z,1008.44
2016-08-04T00:15:49.478Z,1008.41
2016-08-04T00:16:49.504Z,1008.41
2016-08-04T00:17:49.528Z,1008.4
2016-08-04T00:18:49.553Z,1008.41
2016-08-04T00:20:49.603Z,1008.42
2016-08-04T00:21:49.626Z,1008.42
2016-08-04T00:22:49.652Z,1008.37
2016-08-04T00:23:49.677Z,1008.38
2016-08-04T00:24:49.702Z,1008.42
2016-08-04T00:25:49.727Z,1008.39
2016-08-04T00:26:49.751Z,1008.37
2016-08-04T00:27:49.777Z,1008.35
2016-08-04T00:28:49.804Z,1008.36
2016-08-04T00:29:49.825Z,1008.35
2016-08-04T00:30:49.851Z,1008.34
2016-08-04T00:31:49.875Z,1008.36
2016-08-04T00:32:49.900Z,1008.44
2016-08-04T00:33:49.925Z,1008.42
2016-08-04T00:34:49.950Z,1008.4
2016-08-04T00:35:49.974Z,1008.43
2016-08-04T00:36:49.998Z,1008.42
2016-08-04T00:37:50.023Z,1008.42
2016-08-04T00:38:50.049Z,1008.43
2016-08-04T00:39:50.073Z,1008.48
2016-08-04T00:40:50.098Z,1008.43
2016-08-04T00:41:50.123Z,1008.46
2016-08-04T00:42:50.148Z,1008.45
2016-08-04T00:43:50.172Z,1008.43
2016-08-04T00:44:50.197Z,1008.4
2016-08-04T00:45:50.223Z,1008.45
2016-08-04T00:46:50.246Z,1008.44
2016-08-04T00:47:50.270Z,1008.45
2016-08-04T00:48:50.296Z,1008.49
2016-08-04T00:49:50.321Z,1008.46
2016-08-04T00:50:50.345Z,1008.49
2016-08-04T00:51:50.375Z,1008.49
2016-08-04T00:52:50.401Z,1008.46
2016-08-04T00:53:50.420Z,1008.42
2016-08-04T00:54:50.445Z,1008.45
2016-08-04T00:55:50.470Z,1008.44
2016-08-04T00:56:50.495Z,1008.39
2016-08-04T00:57:50.517Z,1008.4
2016-08-04T00:58:50.543Z,1008.39
2016-08-04T00:59:50.569Z,1008.38
2016-08-04T01:00:50.593Z,1008.36
2016-08-04T01:01:50.618Z,1008.43
2016-08-04T01:02:50.641Z,1008.43
2016-08-04T01:03:50.672Z,1008.43
2016-08-04T01:04:50.692Z,1008.45
2016-08-04T01:05:50.717Z,1008.41
2016-08-04T01:06:50.741Z,1008.4
2016-08-04T01:07:50.767Z,1008.35
2016-08-04T01:08:50.791Z,1008.35
2016-08-04T01:09:50.815Z,1008.37
2016-08-04T01:10:50.841Z,1008.36
2016-08-04T01:11:50.866Z,1008.32
2016-08-04T01:12:50.890Z,1008.38
2016-08-04T01:13:50.914Z,1008.33
2016-08-04T01:14:50.940Z,1008.34
2016-08-04T01:15:50.964Z,1008.29
2016-08-04T01:16:50.988Z,1008.31
2016-08-04T01:17:51.014Z,1008.3
2016-08-04T01:18:51.038Z,1008.28
2016-08-04T01:20:51.088Z,1008.3
2016-08-04T01:21:51.113Z,1008.37
2016-08-04T01:22:51.138Z,1008.37
2016-08-04T01:23:51.162Z,1008.36
2016-08-04T01:24:51.186Z,1008.35
2016-08-04T01:25:51.212Z,1008.35
2016-08-04T01:26:51.237Z,1008.33
2016-08-04T01:27:51.261Z,1008.35
2016-08-04T01:28:51.286Z,1008.33
2016-08-04T01:29:51.311Z,1008.31
2016-08-04T01:30:51.335Z,1008.3
2016-08-04T01:31:51.360Z,1008.28
2016-08-04T01:32:51.385Z,1008.23
2016-08-04T01:33:51.410Z,1008.22
2016-08-04T01:35:51.459Z,1008.27
2016-08-04T01:36:51.484Z,1008.25
2016-08-04T01:37:51.509Z,1008.19
2016-08-04T01:38:51.533Z,1008.21
2016-08-04T01:39:51.559Z,1008.17
2016-08-04T01:40:51.583Z,1008.16
2016-08-04T01:41:51.608Z,1008.26
2016-08-04T01:42:51.632Z,1008.29
2016-08-04T01:43:51.657Z,1008.36
2016-08-04T01:44:51.682Z,1008.29
2016-08-04T01:45:51.707Z,1008.26
2016-08-04T01:46:51.731Z,1008.24
2016-08-04T01:47:51.756Z,1008.22
2016-08-04T01:48:51.779Z,1008.17
2016-08-04T01:49:51.805Z,1008.19
2016-08-04T01:50:51.832Z,1008.2
2016-08-04T01:51:51.855Z,1008.19
2016-08-04T01:52:51.879Z,1008.19
2016-08-04T01:53:51.905Z,1008.17
2016-08-04T01:54:51.929Z,1008.14
2016-08-04T01:55:51.955Z,1008.18
2016-08-04T01:56:51.978Z,1008.2
2016-08-04T01:57:52.003Z,1008.19
2016-08-04T01:58:52.028Z,1008.22
2016-08-04T01:59:52.051Z,1008.18
2016-08-04T02:00:52.085Z,1008.18
2016-08-04T02:01:52.101Z,1008.24
2016-08-04T02:02:52.127Z,1008.25
2016-08-04T02:03:52.151Z,1008.27
2016-08-04T02:04:52.175Z,1008.23
2016-08-04T02:05:52.200Z,1008.26
2016-08-04T02:06:52.225Z,1008.27
2016-08-04T02:07:52.252Z,1008.26
2016-08-04T02:08:52.275Z,1008.26
2016-08-04T02:09:52.299Z,1008.21
2016-08-04T02:10:52.323Z,1008.28
2016-08-04T02:11:52.348Z,1008.3
2016-08-04T02:12:52.373Z,1008.31
2016-08-04T02:13:52.399Z,1008.24
2016-08-04T02:14:52.422Z,1008.25
2016-08-04T02:15:52.446Z,1008.25
2016-08-04T02:16:52.477Z,1008.25
2016-08-04T02:17:52.496Z,1008.24
2016-08-04T02:18:52.521Z,1008.24
2016-08-04T02:19:52.545Z,1008.21
2016-08-04T02:20:52.570Z,1008.21
2016-08-04T02:21:52.594Z,1008.21
2016-08-04T02:22:52.629Z,1008.19
2016-08-04T02:23:52.643Z,1008.19
2016-08-04T02:24:52.669Z,1008.21
2016-08-04T02:25:52.693Z,1008.23
2016-08-04T02:26:52.717Z,1008.23
2016-08-04T02:27:52.743Z,1008.26
2016-08-04T02:28:52.767Z,1008.21
2016-08-04T02:29:52.792Z,1008.17
2016-08-04T02:30:52.817Z,1008.16
2016-08-04T02:31:52.844Z,1008.16
2016-08-04T02:32:52.864Z,1008.15
2016-08-04T02:33:52.889Z,1008.15
2016-08-04T02:34:52.915Z,1008.17
2016-08-04T02:35:52.940Z,1008.15
2016-08-04T02:36:52.964Z,1008.2
2016-08-04T02:37:52.988Z,1008.23
2016-08-04T02:38:53.013Z,1008.19
2016-08-04T02:39:53.038Z,1008.13
2016-08-04T02:40:53.062Z,1008.16
2016-08-04T02:41:53.088Z,1008.16
2016-08-04T02:42:53.112Z,1008.13
2016-08-04T02:43:53.136Z,1008.12
2016-08-04T02:44:53.160Z,1008.1
2016-08-04T02:45:53.185Z,1008.16
2016-08-04T02:46:53.210Z,1008.18
2016-08-04T02:47:53.234Z,1008.15
2016-08-04T02:48:53.261Z,1008.12
2016-08-04T02:49:53.284Z,1008.11
2016-08-04T02:50:53.310Z,1008.14
2016-08-04T02:51:53.333Z,1008.15
2016-08-04T02:52:53.358Z,1008.18
2016-08-04T02:53:53.382Z,1008.16
2016-08-04T02:54:53.407Z,1008.16
2016-08-04T02:55:53.431Z,1008.15
2016-08-04T02:56:53.457Z,1008.14
2016-08-04T02:57:53.482Z,1008.13
2016-08-04T02:58:53.506Z,1008.12
2016-08-04T02:59:53.530Z,1008.11
2016-08-04T03:00:53.555Z,1008.1
2016-08-04T03:01:53.581Z,1008.09
2016-08-04T03:02:53.604Z,1008.04
2016-08-04T03:03:53.629Z,1008.07
2016-08-04T03:04:53.653Z,1008.06
2016-08-04T03:05:53.677Z,1008.11
2016-08-04T03:06:53.703Z,1008.11
2016-08-04T03:07:53.728Z,1008.12
2016-08-04T03:08:53.752Z,1008.1
2016-08-04T03:09:53.776Z,1008.05
2016-08-04T03:10:53.801Z,1008.11
2016-08-04T03:11:53.831Z,1008.15
2016-08-04T03:12:53.851Z,1008.12
2016-08-04T03:13:53.876Z,1008.16
2016-08-04T03:14:53.901Z,1008.2
2016-08-04T03:15:53.929Z,1008.21
2016-08-04T03:16:53.949Z,1008.21
2016-08-04T03:17:53.974Z,1008.24
2016-08-04T03:18:54.000Z,1008.31
2016-08-04T03:19:54.025Z,1008.28
2016-08-04T03:20:54.050Z,1008.29
2016-08-04T03:21:54.074Z,1008.27
2016-08-04T03:22:54.098Z,1008.29
2016-08-04T03:23:54.122Z,1008.27
2016-08-04T03:24:54.147Z,1008.21
2016-08-04T03:25:54.176Z,1008.23
2016-08-04T03:26:54.197Z,1008.2
2016-08-04T03:27:54.220Z,1008.18
2016-08-04T03:28:54.246Z,1008.16
2016-08-04T03:29:54.270Z,1008.14
2016-08-04T03:30:54.295Z,1008.15
2016-08-04T03:31:54.319Z,1008.17
2016-08-04T03:32:54.344Z,1008.22
2016-08-04T03:33:54.369Z,1008.2
2016-08-04T03:34:54.392Z,1008.23
2016-08-04T03:35:54.418Z,1008.23
2016-08-04T03:36:54.442Z,1008.27
2016-08-04T03:37:54.467Z,1008.25
2016-08-04T03:38:54.490Z,1008.19
2016-08-04T03:39:54.516Z,1008.17
2016-08-04T03:40:54.545Z,1008.17
2016-08-04T03:41:54.570Z,1008.17
2016-08-04T03:42:54.589Z,1008.16
2016-08-04T03:43:54.614Z,1008.16
2016-08-04T03:44:54.639Z,1008.14
2016-08-04T03:45:54.663Z,1008.19
2016-08-04T03:46:54.688Z,1008.17
2016-08-04T03:47:54.712Z,1008.14
2016-08-04T03:48:54.736Z,1008.15
2016-08-04T03:49:54.760Z,1008.14
2016-08-04T03:50:54.786Z,1008.23
2016-08-04T03:51:54.811Z,1008.15
2016-08-04T03:52:54.835Z,1008.19
2016-08-04T03:53:54.860Z,1008.2
2016-08-04T03:54:54.884Z,1008.2
2016-08-04T03:55:54.910Z,1008.2
2016-08-04T03:56:54.932Z,1008.22
2016-08-04T03:57:54.958Z,1008.25
2016-08-04T03:58:54.983Z,1008.25
2016-08-04T03:59:55.007Z,1008.32
2016-08-04T04:00:55.031Z,1008.27
2016-08-04T04:01:55.056Z,1008.3
2016-08-04T04:02:55.081Z,1008.28
2016-08-04T04:03:55.105Z,1008.28
2016-08-04T04:04:55.128Z,1008.28
2016-08-04T04:05:55.155Z,1008.26
2016-08-04T04:06:55.178Z,1008.29
2016-08-04T04:07:55.202Z,1008.33
2016-08-04T04:08:55.226Z,1008.29
2016-08-04T04:09:55.252Z,1008.29
2016-08-04T04:10:55.289Z,1008.33
2016-08-04T04:11:55.300Z,1008.29
2016-08-04T04:12:55.324Z,1008.24
2016-08-04T04:13:55.358Z,1008.22
2016-08-04T04:14:55.375Z,1008.15
2016-08-04T04:15:55.399Z,1008.16
2016-08-04T04:16:55.424Z,1008.11
2016-08-04T04:17:55.454Z,1008.16
2016-08-04T04:18:55.472Z,1008.16
2016-08-04T04:19:55.497Z,1008.2
2016-08-04T04:20:55.521Z,1008.22
2016-08-04T04:21:55.558Z,1008.19
2016-08-04T04:22:55.570Z,1008.19
2016-08-04T04:23:55.595Z,1008.16
2016-08-04T04:24:55.620Z,1008.17
2016-08-04T04:25:55.645Z,1008.12
2016-08-04T04:26:55.668Z,1008.16
2016-08-04T04:27:55.692Z,1008.12
2016-08-04T04:28:55.717Z,1008.12
2016-08-04T04:29:55.742Z,1008.07
2016-08-04T04:30:55.767Z,1008.11
2016-08-04T04:31:55.802Z,1008.09
2016-08-04T04:32:55.816Z,1008.06
2016-08-04T04:33:55.839Z,1008.1
2016-08-04T04:34:55.870Z,1008.08
2016-08-04T04:35:55.890Z,1008.08
2016-08-04T04:36:55.915Z,1008.02
2016-08-04T04:37:55.938Z,1008.04
2016-08-04T04:38:55.962Z,1008.08
2016-08-04T04:39:55.987Z,1008.08
2016-08-04T04:40:56.012Z,1008.16
2016-08-04T04:41:56.036Z,1008.11
2016-08-04T04:42:56.062Z,1008.09
2016-08-04T04:43:56.085Z,1008.13
2016-08-04T04:44:56.109Z,1008.15
2016-08-04T04:45:56.134Z,1008.11
2016-08-04T04:46:56.159Z,1008.15
2016-08-04T04:47:56.196Z,1008.08
2016-08-04T04:48:56.214Z,1008.04
2016-08-04T04:49:56.233Z,1008.07
2016-08-04T04:50:56.258Z,1008.1
2016-08-04T04:51:56.282Z,1008.05
2016-08-04T04:52:56.307Z,1008.04
2016-08-04T04:53:56.332Z,1008.03
2016-08-04T04:54:56.356Z,1008.04
2016-08-04T04:55:56.380Z,1008.03
2016-08-04T04:56:56.405Z,1008.03
2016-08-04T04:57:56.430Z,1008.06
2016-08-04T04:58:56.454Z,1008.1
2016-08-04T04:59:56.478Z,1008.13
2016-08-04T05:00:56.503Z,1008.09
2016-08-04T05:01:56.528Z,1008.08
2016-08-04T05:02:56.552Z,1008.03
2016-08-04T05:03:56.577Z,1008.05
2016-08-04T05:04:56.601Z,1008.01
2016-08-04T05:05:56.625Z,1008.03
2016-08-04T05:06:56.649Z,1008.05
2016-08-04T05:07:56.674Z,1008.05
2016-08-04T05:08:56.699Z,1008.03
2016-08-04T05:09:56.724Z,1008.02
2016-08-04T05:10:56.748Z,1007.99
2016-08-04T05:11:56.773Z,1008.03
2016-08-04T05:12:56.799Z,1008.1
2016-08-04T05:13:56.822Z,1008.12
2016-08-04T05:14:56.847Z,1008.15
2016-08-04T05:15:56.872Z,1008.14
2016-08-04T05:16:56.896Z,1008.17
2016-08-04T05:17:56.919Z,1008.18
2016-08-04T05:18:56.946Z,1008.23
2016-08-04T05:19:56.971Z,1008.23
2016-08-04T05:21:57.018Z,1008.27
2016-08-04T05:22:57.047Z,1008.28
2016-08-04T05:23:57.067Z,1008.31
2016-08-04T05:24:57.091Z,1008.24
2016-08-04T05:25:57.118Z,1008.29
2016-08-04T05:26:57.141Z,1008.22
2016-08-04T05:27:57.166Z,1008.24
2016-08-04T05:28:57.191Z,1008.2
2016-08-04T05:29:57.229Z,1008.23
2016-08-04T05:30:57.240Z,1008.16
2016-08-04T05:31:57.264Z,1008.21
2016-08-04T05:32:57.289Z,1008.3
2016-08-04T05:33:57.314Z,1008.33
2016-08-04T05:34:57.339Z,1008.39
2016-08-04T05:36:57.388Z,1008.42
2016-08-04T05:37:57.412Z,1008.41
2016-08-04T05:38:57.437Z,1008.42
2016-08-04T05:39:57.463Z,1008.39
2016-08-04T05:40:57.487Z,1008.39
2016-08-04T05:41:57.512Z,1008.42
2016-08-04T05:42:57.535Z,1008.39
2016-08-04T05:43:57.560Z,1008.4
2016-08-04T05:44:57.585Z,1008.37
2016-08-04T05:45:57.611Z,1008.39
2016-08-04T05:46:57.634Z,1008.46
2016-08-04T05:47:57.660Z,1008.45
2016-08-04T05:48:57.683Z,1008.47
2016-08-04T05:49:57.721Z,1008.5
2016-08-04T05:50:57.733Z,1008.49
2016-08-04T05:51:57.763Z,1008.56
2016-08-04T05:52:57.784Z,1008.62
2016-08-04T05:53:57.807Z,1008.67
2016-08-04T05:54:57.832Z,1008.66
2016-08-04T05:55:57.860Z,1008.62
2016-08-04T05:56:57.882Z,1008.55
2016-08-04T05:57:57.906Z,1008.52
2016-08-04T05:58:57.931Z,1008.49
2016-08-04T05:59:57.956Z,1008.45
2016-08-04T06:00:57.981Z,1008.4
2016-08-04T06:01:58.006Z,1008.43
2016-08-04T06:02:58.031Z,1008.43
2016-08-04T06:03:58.056Z,1008.36
2016-08-04T06:04:58.080Z,1008.29
2016-08-04T06:05:58.106Z,1008.35
2016-08-04T06:06:58.132Z,1008.3
2016-08-04T06:07:58.157Z,1008.4
2016-08-04T06:08:58.182Z,1008.42
2016-08-04T06:09:58.208Z,1008.4
2016-08-04T06:10:58.232Z,1008.47
2016-08-04T06:11:58.258Z,1008.39
2016-08-04T06:12:58.283Z,1008.39
2016-08-04T06:13:58.309Z,1008.37
2016-08-04T06:14:58.334Z,1008.38
2016-08-04T06:15:58.359Z,1008.34
2016-08-04T06:16:58.385Z,1008.38
2016-08-04T06:17:58.412Z,1008.36
2016-08-04T06:18:58.437Z,1008.4
2016-08-04T06:19:58.462Z,1008.47
2016-08-04T06:20:58.488Z,1008.43
2016-08-04T06:21:58.519Z,1008.47
2016-08-04T06:22:58.538Z,1008.44
2016-08-04T06:23:58.565Z,1008.47
2016-08-04T06:24:58.590Z,1008.49
2016-08-04T06:25:58.615Z,1008.51
2016-08-04T06:26:58.641Z,1008.56
2016-08-04T06:27:58.671Z,1008.64
2016-08-04T06:28:58.692Z,1008.61
2016-08-04T06:29:58.718Z,1008.63
2016-08-04T06:30:58.742Z,1008.59
2016-08-04T06:31:58.768Z,1008.49
2016-08-04T06:32:58.795Z,1008.51
2016-08-04T06:33:58.820Z,1008.51
2016-08-04T06:34:58.845Z,1008.61
2016-08-04T06:35:58.878Z,1008.59
2016-08-04T06:36:58.898Z,1008.62
2016-08-04T06:37:58.922Z,1008.64
2016-08-04T06:38:58.949Z,1008.65
2016-08-04T06:39:58.975Z,1008.63
2016-08-04T06:40:59.002Z,1008.66
2016-08-04T06:41:59.027Z,1008.74
2016-08-04T06:42:59.053Z,1008.72
2016-08-04T06:43:59.079Z,1008.75
2016-08-04T06:44:59.105Z,1008.86
2016-08-04T06:45:59.132Z,1008.84
2016-08-04T06:46:59.158Z,1008.8
2016-08-04T06:47:59.185Z,1008.86
2016-08-04T06:48:59.210Z,1008.83
2016-08-04T06:49:59.244Z,1008.75
2016-08-04T06:50:59.264Z,1008.73
2016-08-04T06:51:59.291Z,1008.79
2016-08-04T06:52:59.316Z,1008.82
2016-08-04T06:53:59.344Z,1008.8
2016-08-04T06:54:59.371Z,1008.77
2016-08-04T06:55:59.396Z,1008.72
2016-08-04T06:56:59.424Z,1008.8
2016-08-04T06:57:59.449Z,1008.77
2016-08-04T06:58:59.477Z,1008.81
2016-08-04T06:59:59.503Z,1008.86
2016-08-04T07:00:59.530Z,1008.87
2016-08-04T07:01:59.558Z,1008.8
2016-08-04T07:02:59.584Z,1008.79
2016-08-04T07:03:59.611Z,1008.8
2016-08-04T07:04:59.638Z,1008.8
2016-08-04T07:05:59.665Z,1008.83
2016-08-04T07:06:59.691Z,1008.86
2016-08-04T07:07:59.719Z,1008.88
2016-08-04T07:08:59.752Z,1008.9
2016-08-04T07:09:59.774Z,1008.77
2016-08-04T07:10:59.802Z,1008.81
2016-08-04T07:11:59.828Z,1008.82
2016-08-04T07:12:59.856Z,1008.87
2016-08-04T07:13:59.883Z,1008.92
2016-08-04T07:14:59.911Z,1008.99
2016-08-04T07:15:59.938Z,1008.99
2016-08-04T07:16:59.966Z,1009.01
2016-08-04T07:17:59.994Z,1009.06
2016-08-04T07:19:00.020Z,1009.1
2016-08-04T07:20:00.048Z,1009.12
2016-08-04T07:21:00.077Z,1009.14
2016-08-04T07:22:00.103Z,1009.17
2016-08-04T07:23:00.131Z,1009.17
2016-08-04T07:24:00.164Z,1009.25
2016-08-04T07:25:00.186Z,1009.31
2016-08-04T07:26:00.224Z,1009.24
2016-08-04T07:27:00.242Z,1009.23
2016-08-04T07:28:00.268Z,1009.18
2016-08-04T07:29:00.296Z,1009.15
2016-08-04T07:30:00.323Z,1009.13
2016-08-04T07:31:00.351Z,1009.14
2016-08-04T07:32:00.379Z,1009.18
2016-08-04T07:33:00.406Z,1009.17
2016-08-04T07:34:00.433Z,1009.19
2016-08-04T07:35:00.462Z,1009.22
2016-08-04T07:36:00.490Z,1009.21
2016-08-04T07:37:00.516Z,1009.23
2016-08-04T07:38:00.545Z,1009.32
2016-08-04T07:39:00.572Z,1009.32
2016-08-04T07:40:00.600Z,1009.34
2016-08-04T07:41:00.627Z,1009.29
2016-08-04T07:42:00.654Z,1009.26
2016-08-04T07:43:00.683Z,1009.27
2016-08-04T07:44:00.710Z,1009.24
2016-08-04T07:45:00.738Z,1009.31
2016-08-04T07:46:00.766Z,1009.29
2016-08-04T07:47:00.793Z,1009.29
2016-08-04T07:48:00.820Z,1009.34
2016-08-04T07:49:00.848Z,1009.37
2016-08-04T07:50:00.876Z,1009.39
2016-08-04T07:51:00.903Z,1009.31
2016-08-04T07:52:00.931Z,1009.34
2016-08-04T07:53:00.959Z,1009.32
2016-08-04T07:54:00.987Z,1009.35
2016-08-04T07:55:01.014Z,1009.35
2016-08-04T07:56:01.042Z,1009.35
2016-08-04T07:57:01.069Z,1009.33
2016-08-04T07:58:01.098Z,1009.37
2016-08-04T07:59:01.125Z,1009.35
2016-08-04T08:00:01.154Z,1009.38
2016-08-04T08:01:01.182Z,1009.31
2016-08-04T08:02:01.209Z,1009.32
2016-08-04T08:03:01.236Z,1009.29
2016-08-04T08:04:01.265Z,1009.21
2016-08-04T08:05:01.293Z,1009.29
2016-08-04T08:06:01.331Z,1009.25
2016-08-04T08:07:01.348Z,1009.26
2016-08-04T08:08:01.375Z,1009.24
2016-08-04T08:09:01.403Z,1009.25
2016-08-04T08:10:01.430Z,1009.23
2016-08-04T08:11:01.460Z,1009.24
2016-08-04T08:12:01.488Z,1009.17
2016-08-04T08:13:01.517Z,1009.21
2016-08-04T08:14:01.542Z,1009.18
2016-08-04T08:15:01.570Z,1009.14
2016-08-04T08:16:01.598Z,1009.15
2016-08-04T08:17:01.626Z,1009.17
2016-08-04T08:18:01.653Z,1009.1
2016-08-04T08:19:01.681Z,1009.17
2016-08-04T08:20:01.709Z,1009.16
2016-08-04T08:21:01.736Z,1009.13
2016-08-04T08:22:01.800Z,1009.02
2016-08-04T08:23:01.793Z,1009.04
2016-08-04T08:24:01.820Z,1009.07
2016-08-04T08:25:01.848Z,1009.03
2016-08-04T08:26:01.876Z,1009.06
2016-08-04T08:27:01.905Z,1009.12
2016-08-04T08:28:01.931Z,1009.07
2016-08-04T08:29:01.960Z,1009.05
2016-08-04T08:30:01.987Z,1009.09
2016-08-04T08:31:02.015Z,1009.11
2016-08-04T08:32:02.043Z,1009.13
2016-08-04T08:33:02.071Z,1009.14
2016-08-04T08:34:02.099Z,1009.16
2016-08-04T08:35:02.127Z,1009.09
2016-08-04T08:36:02.158Z,1009.13
2016-08-04T08:37:02.182Z,1009.1
2016-08-04T08:38:02.210Z,1009.13
2016-08-04T08:39:02.266Z,1009.13
2016-08-04T08:40:02.266Z,1009.17
2016-08-04T08:41:02.303Z,1009.15
2016-08-04T08:42:02.321Z,1009.08
2016-08-04T08:43:02.349Z,1009.03
2016-08-04T08:44:02.378Z,1009.04
2016-08-04T08:45:02.406Z,1009.02
2016-08-04T08:46:02.433Z,1009
2016-08-04T08:47:02.462Z,1009.05
2016-08-04T08:48:02.489Z,1009.01
2016-08-04T08:49:02.518Z,1009
2016-08-04T08:50:02.545Z,1008.94
2016-08-04T08:51:02.572Z,1009
2016-08-04T08:52:02.601Z,1009.08
2016-08-04T08:53:02.628Z,1009.1
2016-08-04T08:54:02.657Z,1009.08
2016-08-04T08:55:02.685Z,1009.08
2016-08-04T08:56:02.712Z,1009.09
2016-08-04T08:57:02.740Z,1009.03
2016-08-04T08:58:02.769Z,1009.03
2016-08-04T08:59:02.797Z,1009.08
2016-08-04T09:00:02.825Z,1009.07
2016-08-04T09:01:02.851Z,1009.1
2016-08-04T09:02:02.880Z,1009.13
2016-08-04T09:03:02.908Z,1009.14
2016-08-04T09:04:02.935Z,1009.13
2016-08-04T09:05:02.963Z,1009.15
2016-08-04T09:06:02.992Z,1009.15
2016-08-04T09:07:03.020Z,1009.15
2016-08-04T09:08:03.050Z,1009.12
2016-08-04T09:09:03.074Z,1009.11
2016-08-04T09:10:03.104Z,1009.17
2016-08-04T09:11:03.131Z,1009.13
2016-08-04T09:12:03.157Z,1009.11
2016-08-04T09:13:03.186Z,1009.12
2016-08-04T09:14:03.213Z,1009.11
2016-08-04T09:15:03.240Z,1009.15
2016-08-04T09:16:03.269Z,1009.14
2016-08-04T09:17:03.296Z,1009.14
2016-08-04T09:18:03.325Z,1009.1
2016-08-04T09:19:03.352Z,1009.13
2016-08-04T09:20:03.378Z,1009.15
2016-08-04T09:21:03.407Z,1009.15
2016-08-04T09:22:03.435Z,1009.18
2016-08-04T09:23:03.461Z,1009.29
2016-08-04T09:24:03.489Z,1009.24
2016-08-04T09:25:03.517Z,1009.25
2016-08-04T09:26:03.545Z,1009.27
2016-08-04T09:27:03.572Z,1009.28
2016-08-04T09:28:03.600Z,1009.3
2016-08-04T09:29:03.629Z,1009.31
2016-08-04T09:30:03.655Z,1009.3
2016-08-04T09:31:03.689Z,1009.3
2016-08-04T09:32:03.710Z,1009.35
2016-08-04T09:33:03.738Z,1009.3
2016-08-04T09:34:03.766Z,1009.31
2016-08-04T09:35:03.793Z,1009.37
2016-08-04T09:36:03.822Z,1009.31
2016-08-04T09:37:03.849Z,1009.34
2016-08-04T09:38:03.875Z,1009.34
2016-08-04T09:39:03.904Z,1009.38
2016-08-04T09:40:03.933Z,1009.35
2016-08-04T09:41:03.959Z,1009.4
2016-08-04T09:42:03.986Z,1009.42
2016-08-04T09:43:04.015Z,1009.4
2016-08-04T09:44:04.042Z,1009.39
2016-08-04T09:45:04.070Z,1009.33
2016-08-04T09:46:04.098Z,1009.38
2016-08-04T09:47:04.126Z,1009.3
2016-08-04T09:48:04.357Z,1009.3
2016-08-04T09:49:04.182Z,1009.34
2016-08-04T09:50:04.209Z,1009.39
2016-08-04T09:51:04.238Z,1009.42
2016-08-04T09:52:04.266Z,1009.45
2016-08-04T09:53:04.296Z,1009.45
2016-08-04T09:54:04.321Z,1009.48
2016-08-04T09:55:04.349Z,1009.47
2016-08-04T09:56:04.377Z,1009.45
2016-08-04T09:57:04.416Z,1009.41
2016-08-04T09:58:04.433Z,1009.47
2016-08-04T09:59:04.465Z,1009.49
2016-08-04T10:00:04.489Z,1009.52
2016-08-04T10:01:04.518Z,1009.49
2016-08-04T10:02:04.545Z,1009.44
2016-08-04T10:03:04.572Z,1009.49
2016-08-04T10:04:04.602Z,1009.46
2016-08-04T10:05:04.629Z,1009.46
2016-08-04T10:06:04.657Z,1009.44
2016-08-04T10:08:04.717Z,1009.46
2016-08-04T10:09:04.743Z,1009.45
2016-08-04T10:10:04.775Z,1009.59
2016-08-04T10:11:04.798Z,1009.4
2016-08-04T10:12:04.825Z,1009.45
2016-08-04T10:13:04.855Z,1009.43
2016-08-04T10:14:04.887Z,1009.37
2016-08-04T10:15:04.912Z,1009.41
2016-08-04T10:16:04.938Z,1009.39
2016-08-04T10:17:04.965Z,1009.4
2016-08-04T10:18:04.992Z,1009.44
2016-08-04T10:19:05.020Z,1009.48
2016-08-04T10:20:05.050Z,1009.43
2016-08-04T10:21:05.077Z,1009.4
2016-08-04T10:23:05.133Z,1009.42
2016-08-04T10:24:05.160Z,1009.42
2016-08-04T10:25:05.188Z,1009.42
2016-08-04T10:26:05.217Z,1009.43
2016-08-04T10:27:05.244Z,1009.43
2016-08-04T10:28:05.272Z,1009.42
2016-08-04T10:29:05.300Z,1009.37
2016-08-04T10:30:05.328Z,1009.4
2016-08-04T10:31:05.357Z,1009.31
2016-08-04T10:32:05.383Z,1009.36
2016-08-04T10:33:05.412Z,1009.31
2016-08-04T10:34:05.440Z,1009.33
2016-08-04T10:35:05.467Z,1009.32
2016-08-04T10:36:05.495Z,1009.24
2016-08-04T10:37:05.524Z,1009.26
2016-08-04T10:38:05.552Z,1009.22
2016-08-04T10:39:05.579Z,1009.24
2016-08-04T10:40:05.606Z,1009.17
2016-08-04T10:41:05.634Z,1009.21
2016-08-04T10:42:05.662Z,1009.21
2016-08-04T10:43:05.690Z,1009.15
2016-08-04T10:44:05.718Z,1009.21
2016-08-04T10:45:05.746Z,1009.21
2016-08-04T10:46:05.774Z,1009.19
2016-08-04T10:47:05.801Z,1009.24
2016-08-04T10:48:05.829Z,1009.18
2016-08-04T10:49:05.856Z,1009.21
2016-08-04T10:50:05.892Z,1009.21
2016-08-04T10:51:05.912Z,1009.21
2016-08-04T10:52:05.941Z,1009.2
2016-08-04T10:53:05.969Z,1009.24
2016-08-04T10:54:05.996Z,1009.21
2016-08-04T10:55:06.024Z,1009.18
2016-08-04T10:56:06.052Z,1009.17
2016-08-04T10:57:06.079Z,1009.14
2016-08-04T10:58:06.108Z,1009.09
2016-08-04T10:59:06.136Z,1009.09
2016-08-04T11:00:06.163Z,1009.07
2016-08-04T11:01:06.190Z,1009.06
2016-08-04T11:02:06.218Z,1009.07
2016-08-04T11:03:06.247Z,1009.06
2016-08-04T11:04:06.275Z,1009.06
2016-08-04T11:05:06.302Z,1009.06
2016-08-04T11:06:06.335Z,1009.09
2016-08-04T11:07:06.358Z,1009.12
2016-08-04T11:08:06.386Z,1009.16
2016-08-04T11:09:06.414Z,1009.21
2016-08-04T11:10:06.442Z,1009.2
2016-08-04T11:11:06.469Z,1009.2
2016-08-04T11:12:06.497Z,1009.22
2016-08-04T11:13:06.525Z,1009.25
2016-08-04T11:14:06.552Z,1009.22
2016-08-04T11:15:06.581Z,1009.24
2016-08-04T11:16:06.608Z,1009.27
2016-08-04T11:17:06.642Z,1009.29
2016-08-04T11:18:06.664Z,1009.31
2016-08-04T11:19:06.691Z,1009.29
2016-08-04T11:20:06.720Z,1009.22
2016-08-04T11:21:06.747Z,1009.27
2016-08-04T11:22:06.775Z,1009.31
2016-08-04T11:23:06.802Z,1009.37
2016-08-04T11:24:06.831Z,1009.32
2016-08-04T11:25:06.858Z,1009.37
2016-08-04T11:26:06.886Z,1009.22
2016-08-04T11:27:06.913Z,1009.16
2016-08-04T11:28:06.942Z,1009.05
2016-08-04T11:29:06.970Z,1009.13
2016-08-04T11:30:06.996Z,1009.05
2016-08-04T11:31:07.024Z,1009.06
2016-08-04T11:32:07.052Z,1009.12
2016-08-04T11:33:07.082Z,1009.17
2016-08-04T11:34:07.108Z,1009.18
2016-08-04T11:35:07.136Z,1009.23
2016-08-04T11:36:07.165Z,1009.25
2016-08-04T11:37:07.193Z,1009.26
2016-08-04T11:38:07.220Z,1009.28
2016-08-04T11:39:07.249Z,1009.25
2016-08-04T11:40:07.276Z,1009.24
2016-08-04T11:41:07.303Z,1009.29
2016-08-04T11:42:07.332Z,1009.25
2016-08-04T11:43:07.360Z,1009.32
2016-08-04T11:44:07.389Z,1009.34
2016-08-04T11:45:07.415Z,1009.39
2016-08-04T11:46:07.444Z,1009.37
2016-08-04T11:47:07.471Z,1009.36
2016-08-04T11:48:07.501Z,1009.3
2016-08-04T11:49:07.527Z,1009.24
2016-08-04T11:50:07.556Z,1009.22
2016-08-04T11:51:07.583Z,1009.22
2016-08-04T11:52:07.611Z,1009.2
2016-08-04T11:53:07.639Z,1009.16
2016-08-04T11:54:07.668Z,1009.15
2016-08-04T11:55:07.696Z,1009.21
2016-08-04T11:56:07.724Z,1009.28
2016-08-04T11:57:07.753Z,1009.28
2016-08-04T11:58:07.779Z,1009.23
2016-08-04T11:59:07.808Z,1009.23
2016-08-04T12:00:07.835Z,1009.23
2016-08-04T12:01:07.863Z,1009.22
2016-08-04T12:02:07.891Z,1009.17
2016-08-04T12:03:07.920Z,1009.16
2016-08-04T12:04:07.947Z,1009.18
2016-08-04T12:05:07.976Z,1009.21
2016-08-04T12:06:08.004Z,1009.15
2016-08-04T12:07:08.032Z,1009.23
2016-08-04T12:08:08.060Z,1009.19
2016-08-04T12:09:08.088Z,1009.18
2016-08-04T12:10:08.117Z,1009.18
2016-08-04T12:11:08.144Z,1009.18
2016-08-04T12:12:08.171Z,1009.16
2016-08-04T12:13:08.199Z,1009.17
2016-08-04T12:14:08.227Z,1009.15
2016-08-04T12:15:08.254Z,1009.16
2016-08-04T12:16:08.283Z,1009.11